sensor_id;sensor_type;location;lat;lon;timestamp;pressure;altitude;pressure_sealevel;temperature;humidity
57668;BME280;43499;52.366;12.912;2023-05-21T00:00:39;101629.13;;;15.40;83.42
57668;BME280;43499;52.366;12.912;2023-05-21T00:01:40;101633.22;;;15.36;83.49
57668;BME280;43499;52.366;12.912;2023-05-21T00:02:42;101637.72;;;15.37;83.56
57668;BME280;43499;52.366;12.912;2023-05-21T00:03:43;101634.19;;;15.37;83.76
57668;BME280;43499;52.366;12.912;2023-05-21T00:04:46;101633.94;;;15.34;84.35
57668;BME280;43499;52.366;12.912;2023-05-21T00:05:47;101622.75;;;15.26;84.24
57668;BME280;43499;52.366;12.912;2023-05-21T00:06:49;101637.28;;;15.31;84.86
57668;BME280;43499;52.366;12.912;2023-05-21T00:07:51;101629.88;;;15.27;84.99
57668;BME280;43499;52.366;12.912;2023-05-21T00:08:54;101639.94;;;15.31;84.51
57668;BME280;43499;52.366;12.912;2023-05-21T00:09:56;101618.03;;;15.22;84.58
57668;BME280;43499;52.366;12.912;2023-05-21T00:10:57;101625.28;;;15.24;84.76
57668;BME280;43499;52.366;12.912;2023-05-21T00:11:58;101632.88;;;15.32;84.79
57668;BME280;43499;52.366;12.912;2023-05-21T00:12:59;101636.47;;;15.32;85.04
57668;BME280;43499;52.366;12.912;2023-05-21T00:14:00;101632.53;;;15.27;85.13
57668;BME280;43499;52.366;12.912;2023-05-21T00:15:01;101638.19;;;15.32;85.43
57668;BME280;43499;52.366;12.912;2023-05-21T00:16:03;101628.28;;;15.29;85.45
57668;BME280;43499;52.366;12.912;2023-05-21T00:17:04;101617.00;;;15.20;85.34
57668;BME280;43499;52.366;12.912;2023-05-21T00:18:05;101640.72;;;15.30;85.22
57668;BME280;43499;52.366;12.912;2023-05-21T00:19:06;101638.88;;;15.29;85.16
57668;BME280;43499;52.366;12.912;2023-05-21T00:20:08;101623.69;;;15.26;85.06
57668;BME280;43499;52.366;12.912;2023-05-21T00:21:09;101631.75;;;15.28;85.55
57668;BME280;43499;52.366;12.912;2023-05-21T00:22:11;101630.84;;;15.27;85.63
57668;BME280;43499;52.366;12.912;2023-05-21T00:23:13;101620.34;;;15.17;85.75
57668;BME280;43499;52.366;12.912;2023-05-21T00:24:18;101634.03;;;15.23;85.66
57668;BME280;43499;52.366;12.912;2023-05-21T00:25:19;101627.34;;;15.17;85.79
57668;BME280;43499;52.366;12.912;2023-05-21T00:26:22;101641.88;;;15.22;86.05
57668;BME280;43499;52.366;12.912;2023-05-21T00:27:27;101634.47;;;15.18;85.70
57668;BME280;43499;52.366;12.912;2023-05-21T00:28:28;101606.00;;;15.03;86.10
57668;BME280;43499;52.366;12.912;2023-05-21T00:29:29;101626.28;;;15.15;86.14
57668;BME280;43499;52.366;12.912;2023-05-21T00:30:30;101602.34;;;15.01;85.96
57668;BME280;43499;52.366;12.912;2023-05-21T00:31:31;101634.47;;;15.18;85.78
57668;BME280;43499;52.366;12.912;2023-05-21T00:32:33;101621.09;;;15.04;86.06
57668;BME280;43499;52.366;12.912;2023-05-21T00:33:34;101621.59;;;15.10;86.13
57668;BME280;43499;52.366;12.912;2023-05-21T00:34:35;101621.34;;;15.07;86.01
57668;BME280;43499;52.366;12.912;2023-05-21T00:35:37;101629.75;;;15.14;86.49
57668;BME280;43499;52.366;12.912;2023-05-21T00:36:38;101632.03;;;15.09;86.37
57668;BME280;43499;52.366;12.912;2023-05-21T00:37:40;101597.91;;;14.90;86.38
57668;BME280;43499;52.366;12.912;2023-05-21T00:38:42;101628.13;;;15.04;86.51
57668;BME280;43499;52.366;12.912;2023-05-21T00:39:46;101634.47;;;15.06;87.12
57668;BME280;43499;52.366;12.912;2023-05-21T00:40:47;101612.34;;;14.93;87.24
57668;BME280;43499;52.366;12.912;2023-05-21T00:41:48;101622.59;;;15.01;87.12
57668;BME280;43499;52.366;12.912;2023-05-21T00:42:50;101610.00;;;14.86;86.96
57668;BME280;43499;52.366;12.912;2023-05-21T00:43:51;101625.25;;;15.01;87.29
57668;BME280;43499;52.366;12.912;2023-05-21T00:44:52;101613.25;;;14.94;87.25
57668;BME280;43499;52.366;12.912;2023-05-21T00:45:56;101625.13;;;14.99;87.41
57668;BME280;43499;52.366;12.912;2023-05-21T00:46:57;101627.78;;;14.99;87.56
57668;BME280;43499;52.366;12.912;2023-05-21T00:47:59;101625.00;;;14.98;87.81
57668;BME280;43499;52.366;12.912;2023-05-21T00:49:02;101601.00;;;14.84;88.02
57668;BME280;43499;52.366;12.912;2023-05-21T00:50:04;101606.69;;;14.89;88.13
57668;BME280;43499;52.366;12.912;2023-05-21T00:51:06;101612.66;;;14.86;88.08
57668;BME280;43499;52.366;12.912;2023-05-21T00:52:07;101609.56;;;14.92;88.31
57668;BME280;43499;52.366;12.912;2023-05-21T00:53:08;101589.84;;;14.76;88.52
57668;BME280;43499;52.366;12.912;2023-05-21T00:54:09;101622.69;;;14.90;88.65
57668;BME280;43499;52.366;12.912;2023-05-21T00:55:10;101617.28;;;14.89;88.58
57668;BME280;43499;52.366;12.912;2023-05-21T00:56:12;101621.63;;;14.88;88.51
57668;BME280;43499;52.366;12.912;2023-05-21T00:57:13;101603.31;;;14.79;88.85
57668;BME280;43499;52.366;12.912;2023-05-21T00:58:14;101612.97;;;14.79;88.98
57668;BME280;43499;52.366;12.912;2023-05-21T00:59:17;101618.53;;;14.82;88.71
57668;BME280;43499;52.366;12.912;2023-05-21T01:00:19;101610.44;;;14.80;89.05
57668;BME280;43499;52.366;12.912;2023-05-21T01:01:20;101597.97;;;14.68;89.23
57668;BME280;43499;52.366;12.912;2023-05-21T01:02:21;101603.75;;;14.74;89.54
57668;BME280;43499;52.366;12.912;2023-05-21T01:03:23;101601.34;;;14.77;89.17
57668;BME280;43499;52.366;12.912;2023-05-21T01:04:25;101600.09;;;14.72;89.26
57668;BME280;43499;52.366;12.912;2023-05-21T01:05:27;101610.09;;;14.76;89.41
57668;BME280;43499;52.366;12.912;2023-05-21T01:06:28;101582.63;;;14.63;89.58
57668;BME280;43499;52.366;12.912;2023-05-21T01:07:29;101611.81;;;14.75;89.93
57668;BME280;43499;52.366;12.912;2023-05-21T01:08:31;101561.97;;;14.47;89.91
57668;BME280;43499;52.366;12.912;2023-05-21T01:09:34;101579.63;;;14.59;90.07
57668;BME280;43499;52.366;12.912;2023-05-21T01:10:35;101610.53;;;14.70;90.06
57668;BME280;43499;52.366;12.912;2023-05-21T01:11:43;101581.00;;;14.54;90.57
57668;BME280;43499;52.366;12.912;2023-05-21T01:12:46;101581.00;;;14.54;90.83
57668;BME280;43499;52.366;12.912;2023-05-21T01:13:48;101590.78;;;14.55;91.13
57668;BME280;43499;52.366;12.912;2023-05-21T01:14:50;101584.31;;;14.51;91.08
57668;BME280;43499;52.366;12.912;2023-05-21T01:15:52;101606.31;;;14.62;90.45
57668;BME280;43499;52.366;12.912;2023-05-21T01:16:54;101606.31;;;14.62;91.07
57668;BME280;43499;52.366;12.912;2023-05-21T01:17:55;101605.38;;;14.61;90.78
57668;BME280;43499;52.366;12.912;2023-05-21T01:18:57;101567.72;;;14.42;90.85
57668;BME280;43499;52.366;12.912;2023-05-21T01:19:59;101590.78;;;14.55;90.96
57668;BME280;43499;52.366;12.912;2023-05-21T01:21:01;101569.44;;;14.41;91.29
57668;BME280;43499;52.366;12.912;2023-05-21T01:22:06;101588.00;;;14.53;91.85
57668;BME280;43499;52.366;12.912;2023-05-21T01:23:08;101596.97;;;14.55;91.55
57668;BME280;43499;52.366;12.912;2023-05-21T01:24:09;101579.09;;;14.41;91.81
57668;BME280;43499;52.366;12.912;2023-05-21T01:25:10;101585.44;;;14.43;91.93
57668;BME280;43499;52.366;12.912;2023-05-21T01:26:11;101592.13;;;14.49;91.69
57668;BME280;43499;52.366;12.912;2023-05-21T01:27:13;101595.56;;;14.48;92.10
57668;BME280;43499;52.366;12.912;2023-05-21T01:28:14;101599.97;;;14.48;92.23
57668;BME280;43499;52.366;12.912;2023-05-21T01:29:16;101593.63;;;14.46;92.21
57668;BME280;43499;52.366;12.912;2023-05-21T01:30:22;101605.91;;;14.45;92.55
57668;BME280;43499;52.366;12.912;2023-05-21T01:31:34;101604.88;;;14.43;92.49
57668;BME280;43499;52.366;12.912;2023-05-21T01:33:01;101597.75;;;14.42;92.83
57668;BME280;43499;52.366;12.912;2023-05-21T01:34:04;101574.66;;;14.29;93.17
57668;BME280;43499;52.366;12.912;2023-05-21T01:35:14;101575.59;;;14.30;92.92
57668;BME280;43499;52.366;12.912;2023-05-21T01:36:20;101562.44;;;14.19;93.34
57668;BME280;43499;52.366;12.912;2023-05-21T01:37:40;101593.00;;;14.38;93.34
57668;BME280;43499;52.366;12.912;2023-05-21T01:40:00;101588.41;;;14.35;93.61
57668;BME280;43499;52.366;12.912;2023-05-21T01:41:10;101587.59;;;14.37;93.51
57668;BME280;43499;52.366;12.912;2023-05-21T01:42:14;101581.53;;;14.27;93.85
57668;BME280;43499;52.366;12.912;2023-05-21T01:43:23;101593.97;;;14.28;94.14
57668;BME280;43499;52.366;12.912;2023-05-21T01:44:28;101588.31;;;14.24;94.28
57668;BME280;43499;52.366;12.912;2023-05-21T01:45:32;101578.78;;;14.26;94.18
57668;BME280;43499;52.366;12.912;2023-05-21T01:46:37;101593.88;;;14.27;94.56
57668;BME280;43499;52.366;12.912;2023-05-21T01:47:40;101560.66;;;14.08;94.53
57668;BME280;43499;52.366;12.912;2023-05-21T01:48:49;101587.53;;;14.25;94.51
57668;BME280;43499;52.366;12.912;2023-05-21T01:50:27;101579.59;;;14.25;94.57
57668;BME280;43499;52.366;12.912;2023-05-21T01:53:12;101523.75;;;13.87;94.82
57668;BME280;43499;52.366;12.912;2023-05-21T01:58:14;101582.41;;;14.16;96.07
57668;BME280;43499;52.366;12.912;2023-05-21T02:00:19;101588.38;;;14.13;95.86
57668;BME280;43499;52.366;12.912;2023-05-21T02:07:01;101524.75;;;13.78;96.50
57668;BME280;43499;52.366;12.912;2023-05-21T02:09:15;101564.53;;;14.01;96.23
57668;BME280;43499;52.366;12.912;2023-05-21T02:11:10;101581.13;;;14.11;96.46
57668;BME280;43499;52.366;12.912;2023-05-21T02:18:46;101517.38;;;13.73;97.24
57668;BME280;43499;52.366;12.912;2023-05-21T02:28:17;101562.97;;;13.93;98.55
57668;BME280;43499;52.366;12.912;2023-05-21T02:30:32;101557.22;;;13.87;98.28
57668;BME280;43499;52.366;12.912;2023-05-21T02:32:37;101553.78;;;13.88;98.48
57668;BME280;43499;52.366;12.912;2023-05-21T02:34:22;101558.91;;;13.86;98.65
57668;BME280;43499;52.366;12.912;2023-05-21T02:35:36;101564.09;;;13.85;99.32
57668;BME280;43499;52.366;12.912;2023-05-21T02:40:13;101507.31;;;13.47;99.78
57668;BME280;43499;52.366;12.912;2023-05-21T02:42:29;101557.63;;;13.81;100.00
57668;BME280;43499;52.366;12.912;2023-05-21T02:44:36;101553.13;;;13.80;100.00
57668;BME280;43499;52.366;12.912;2023-05-21T02:47:01;101491.22;;;13.44;100.00
57668;BME280;43499;52.366;12.912;2023-05-21T02:48:57;101477.13;;;13.33;100.00
57668;BME280;43499;52.366;12.912;2023-05-21T02:50:51;101466.19;;;13.29;100.00
57668;BME280;43499;52.366;12.912;2023-05-21T02:54:59;101546.53;;;13.75;100.00
57668;BME280;43499;52.366;12.912;2023-05-21T03:02:08;101499.81;;;13.41;100.00
57668;BME280;43499;52.366;12.912;2023-05-21T03:04:44;101535.13;;;13.64;100.00
57668;BME280;43499;52.366;12.912;2023-05-21T03:09:30;101451.97;;;13.06;100.00
57668;BME280;43499;52.366;12.912;2023-05-21T03:11:23;101439.47;;;13.03;100.00
57668;BME280;43499;52.366;12.912;2023-05-21T03:13:07;101435.78;;;13.01;100.00
57668;BME280;43499;52.366;12.912;2023-05-21T03:15:13;101430.50;;;13.01;100.00
57668;BME280;43499;52.366;12.912;2023-05-21T03:22:33;101543.94;;;13.65;100.00
57668;BME280;43499;52.366;12.912;2023-05-21T03:24:59;101547.53;;;13.65;100.00
57668;BME280;43499;52.366;12.912;2023-05-21T03:26:53;101496.78;;;13.37;100.00
57668;BME280;43499;52.366;12.912;2023-05-21T03:29:29;101547.91;;;13.70;100.00
57668;BME280;43499;52.366;12.912;2023-05-21T03:32:27;101546.53;;;13.75;100.00
57668;BME280;43499;52.366;12.912;2023-05-21T03:35:08;101542.47;;;13.79;100.00
57668;BME280;43499;52.366;12.912;2023-05-21T03:37:36;101553.25;;;13.82;100.00
57668;BME280;43499;52.366;12.912;2023-05-21T03:39:36;101476.06;;;13.41;100.00
57668;BME280;43499;52.366;12.912;2023-05-21T03:41:52;101484.09;;;13.43;100.00
57668;BME280;43499;52.366;12.912;2023-05-21T03:43:59;101482.19;;;13.52;100.00
57668;BME280;43499;52.366;12.912;2023-05-21T03:46:32;101457.97;;;13.36;100.00
57668;BME280;43499;52.366;12.912;2023-05-21T03:53:32;101554.56;;;14.09;100.00
57668;BME280;43499;52.366;12.912;2023-05-21T03:55:47;101497.47;;;13.89;100.00
57668;BME280;43499;52.366;12.912;2023-05-21T04:00:45;101548.16;;;14.40;99.48
57668;BME280;43499;52.366;12.912;2023-05-21T04:07:31;101551.91;;;14.88;96.86
57668;BME280;43499;52.366;12.912;2023-05-21T04:20:17;101552.75;;;15.34;94.27
57668;BME280;43499;52.366;12.912;2023-05-21T04:22:23;101566.31;;;15.51;93.50
57668;BME280;43499;52.366;12.912;2023-05-21T04:29:44;101555.94;;;15.89;90.76
57668;BME280;43499;52.366;12.912;2023-05-21T04:30:46;101555.03;;;15.89;90.58
57668;BME280;43499;52.366;12.912;2023-05-21T04:31:47;101559.75;;;15.93;90.89
57668;BME280;43499;52.366;12.912;2023-05-21T04:32:49;101549.22;;;15.83;90.81
57668;BME280;43499;52.366;12.912;2023-05-21T04:33:52;101568.03;;;15.98;90.44
57668;BME280;43499;52.366;12.912;2023-05-21T04:34:53;101552.22;;;15.99;90.26
57668;BME280;43499;52.366;12.912;2023-05-21T04:35:54;101555.22;;;16.04;90.21
57668;BME280;43499;52.366;12.912;2023-05-21T04:36:55;101562.78;;;16.11;89.76
57668;BME280;43499;52.366;12.912;2023-05-21T04:37:56;101545.53;;;16.04;90.07
57668;BME280;43499;52.366;12.912;2023-05-21T04:38:57;101565.34;;;16.10;89.87
57668;BME280;43499;52.366;12.912;2023-05-21T04:39:58;101555.22;;;16.04;89.99
57668;BME280;43499;52.366;12.912;2023-05-21T04:41:01;101569.97;;;16.00;90.15
57668;BME280;43499;52.366;12.912;2023-05-21T04:42:03;101567.34;;;15.88;91.02
57668;BME280;43499;52.366;12.912;2023-05-21T04:43:04;101552.03;;;15.84;91.41
57668;BME280;43499;52.366;12.912;2023-05-21T04:44:06;101565.38;;;15.98;91.17
57668;BME280;43499;52.366;12.912;2023-05-21T04:45:08;101562.78;;;16.11;91.01
57668;BME280;43499;52.366;12.912;2023-05-21T04:46:12;101555.38;;;16.19;90.24
57668;BME280;43499;52.366;12.912;2023-05-21T04:47:13;101557.13;;;16.18;89.66
57668;BME280;43499;52.366;12.912;2023-05-21T04:48:15;101556.41;;;16.21;89.75
57668;BME280;43499;52.366;12.912;2023-05-21T04:49:16;101553.19;;;16.25;89.34
57668;BME280;43499;52.366;12.912;2023-05-21T04:50:17;101561.16;;;16.25;89.39
57668;BME280;43499;52.366;12.912;2023-05-21T04:51:20;101568.09;;;16.11;89.96
57668;BME280;43499;52.366;12.912;2023-05-21T04:52:22;101572.34;;;16.21;90.10
57668;BME280;43499;52.366;12.912;2023-05-21T04:53:24;101573.31;;;16.35;89.72
57668;BME280;43499;52.366;12.912;2023-05-21T04:54:25;101569.19;;;16.39;89.35
57668;BME280;43499;52.366;12.912;2023-05-21T04:55:27;101577.81;;;16.36;88.78
57668;BME280;43499;52.366;12.912;2023-05-21T04:56:28;101572.03;;;16.42;88.77
57668;BME280;43499;52.366;12.912;2023-05-21T04:57:29;101571.44;;;16.46;88.47
57668;BME280;43499;52.366;12.912;2023-05-21T04:58:30;101573.16;;;16.45;88.73
57668;BME280;43499;52.366;12.912;2023-05-21T04:59:34;101564.59;;;16.49;88.46
57668;BME280;43499;52.366;12.912;2023-05-21T05:00:36;101563.09;;;16.53;88.24
57668;BME280;43499;52.366;12.912;2023-05-21T05:01:39;101569.75;;;16.60;87.85
57668;BME280;43499;52.366;12.912;2023-05-21T05:02:40;101567.91;;;16.59;87.52
57668;BME280;43499;52.366;12.912;2023-05-21T05:03:41;101571.81;;;16.64;87.59
57668;BME280;43499;52.366;12.912;2023-05-21T05:04:42;101558.50;;;16.50;88.00
57668;BME280;43499;52.366;12.912;2023-05-21T05:05:44;101570.69;;;16.60;87.33
57668;BME280;43499;52.366;12.912;2023-05-21T05:06:46;101573.22;;;16.59;87.26
57668;BME280;43499;52.366;12.912;2023-05-21T05:07:47;101569.16;;;16.64;87.13
57668;BME280;43499;52.366;12.912;2023-05-21T05:08:50;101574.88;;;16.70;87.27
57668;BME280;43499;52.366;12.912;2023-05-21T05:09:51;101571.41;;;16.71;87.11
57668;BME280;43499;52.366;12.912;2023-05-21T05:10:52;101564.41;;;16.72;86.65
57668;BME280;43499;52.366;12.912;2023-05-21T05:11:53;101573.91;;;16.81;86.50
57668;BME280;43499;52.366;12.912;2023-05-21T05:12:54;101576.94;;;16.74;86.79
57668;BME280;43499;52.366;12.912;2023-05-21T05:13:55;101549.31;;;16.59;86.55
57668;BME280;43499;52.366;12.912;2023-05-21T05:14:56;101569.22;;;16.77;86.65
57668;BME280;43499;52.366;12.912;2023-05-21T05:15:57;101562.50;;;16.57;86.89
57668;BME280;43499;52.366;12.912;2023-05-21T05:17:00;101567.81;;;16.57;87.12
57668;BME280;43499;52.366;12.912;2023-05-21T05:18:02;101559.22;;;16.48;87.81
57668;BME280;43499;52.366;12.912;2023-05-21T05:19:03;101565.56;;;16.63;87.33
57668;BME280;43499;52.366;12.912;2023-05-21T05:20:06;101561.28;;;16.65;86.80
57668;BME280;43499;52.366;12.912;2023-05-21T05:21:07;101553.25;;;16.64;87.29
57668;BME280;43499;52.366;12.912;2023-05-21T05:22:09;101563.41;;;16.58;87.45
57668;BME280;43499;52.366;12.912;2023-05-21T05:23:10;101552.38;;;16.52;87.68
57668;BME280;43499;52.366;12.912;2023-05-21T05:24:13;101565.25;;;16.59;87.40
57668;BME280;43499;52.366;12.912;2023-05-21T05:25:16;101560.25;;;16.63;87.69
57668;BME280;43499;52.366;12.912;2023-05-21T05:26:17;101555.34;;;16.56;87.86
57668;BME280;43499;52.366;12.912;2023-05-21T05:27:19;101563.63;;;16.61;87.92
57668;BME280;43499;52.366;12.912;2023-05-21T05:28:20;101563.41;;;16.58;87.25
57668;BME280;43499;52.366;12.912;2023-05-21T05:29:21;101559.22;;;16.48;87.38
57668;BME280;43499;52.366;12.912;2023-05-21T05:30:22;101547.59;;;16.34;88.03
57668;BME280;43499;52.366;12.912;2023-05-21T05:31:23;101564.34;;;16.33;87.98
57668;BME280;43499;52.366;12.912;2023-05-21T05:32:24;101556.53;;;16.23;89.17
57668;BME280;43499;52.366;12.912;2023-05-21T05:33:25;101569.09;;;16.25;89.79
57668;BME280;43499;52.366;12.912;2023-05-21T05:34:27;101556.53;;;16.23;89.86
57668;BME280;43499;52.366;12.912;2023-05-21T05:35:28;101558.25;;;16.22;89.49
57668;BME280;43499;52.366;12.912;2023-05-21T05:36:30;101570.47;;;16.32;89.52
57668;BME280;43499;52.366;12.912;2023-05-21T05:37:31;101560.75;;;16.32;89.13
57668;BME280;43499;52.366;12.912;2023-05-21T05:38:33;101574.25;;;16.35;89.34
57668;BME280;43499;52.366;12.912;2023-05-21T05:39:34;101561.47;;;16.30;89.43
57668;BME280;43499;52.366;12.912;2023-05-21T05:40:36;101573.22;;;16.33;89.10
57668;BME280;43499;52.366;12.912;2023-05-21T05:41:37;101564.88;;;16.41;89.11
57668;BME280;43499;52.366;12.912;2023-05-21T05:42:38;101554.25;;;16.41;88.76
57668;BME280;43499;52.366;12.912;2023-05-21T05:43:45;101559.56;;;16.41;89.38
57668;BME280;43499;52.366;12.912;2023-05-21T05:44:46;101562.75;;;16.48;88.67
57668;BME280;43499;52.366;12.912;2023-05-21T05:45:47;101543.88;;;16.44;88.54
57668;BME280;43499;52.366;12.912;2023-05-21T05:46:49;101550.22;;;16.46;87.96
57668;BME280;43499;52.366;12.912;2023-05-21T05:47:51;101554.56;;;16.45;88.46
57668;BME280;43499;52.366;12.912;2023-05-21T05:48:52;101551.34;;;16.49;88.59
57668;BME280;43499;52.366;12.912;2023-05-21T05:49:53;101570.88;;;16.63;88.49
57668;BME280;43499;52.366;12.912;2023-05-21T05:50:54;101560.44;;;16.53;88.50
57668;BME280;43499;52.366;12.912;2023-05-21T05:51:59;101563.81;;;16.50;88.78
57668;BME280;43499;52.366;12.912;2023-05-21T05:53:01;101566.28;;;16.61;88.19
57668;BME280;43499;52.366;12.912;2023-05-21T05:54:03;101562.91;;;16.63;87.39
57668;BME280;43499;52.366;12.912;2023-05-21T05:55:05;101553.25;;;16.64;87.70
57668;BME280;43499;52.366;12.912;2023-05-21T05:56:08;101561.56;;;16.82;87.05
57668;BME280;43499;52.366;12.912;2023-05-21T05:57:10;101564.03;;;16.92;86.66
57668;BME280;43499;52.366;12.912;2023-05-21T05:58:12;101557.53;;;17.01;86.19
57668;BME280;43499;52.366;12.912;2023-05-21T05:59:24;101547.03;;;17.02;85.13
57668;BME280;43499;52.366;12.912;2023-05-21T06:00:29;101542.53;;;17.15;84.86
57668;BME280;43499;52.366;12.912;2023-05-21T06:01:33;101555.13;;;17.31;83.93
57668;BME280;43499;52.366;12.912;2023-05-21T06:02:34;101549.63;;;17.41;83.83
57668;BME280;43499;52.366;12.912;2023-05-21T06:03:36;101555.13;;;17.44;83.22
57668;BME280;43499;52.366;12.912;2023-05-21T06:04:44;101551.47;;;17.42;82.88
57668;BME280;43499;52.366;12.912;2023-05-21T06:05:46;101534.56;;;17.28;83.33
57668;BME280;43499;52.366;12.912;2023-05-21T06:06:48;101551.13;;;17.37;83.53
57668;BME280;43499;52.366;12.912;2023-05-21T06:07:49;101548.47;;;17.51;82.71
57668;BME280;43499;52.366;12.912;2023-05-21T06:08:50;101553.38;;;17.71;82.39
57668;BME280;43499;52.366;12.912;2023-05-21T06:09:53;101556.41;;;17.91;81.96
57668;BME280;43499;52.366;12.912;2023-05-21T06:10:54;101540.91;;;18.12;80.78
57668;BME280;43499;52.366;12.912;2023-05-21T06:11:55;101546.06;;;18.38;79.62
57668;BME280;43499;52.366;12.912;2023-05-21T06:12:56;101549.38;;;18.48;78.25
57668;BME280;43499;52.366;12.912;2023-05-21T06:13:57;101554.38;;;18.57;77.95
57668;BME280;43499;52.366;12.912;2023-05-21T06:15:01;101552.53;;;18.56;77.37
57668;BME280;43499;52.366;12.912;2023-05-21T06:16:03;101548.03;;;18.27;78.42
57668;BME280;43499;52.366;12.912;2023-05-21T06:17:04;101553.06;;;18.50;78.21
57668;BME280;43499;52.366;12.912;2023-05-21T06:18:05;101537.66;;;18.60;77.62
57668;BME280;43499;52.366;12.912;2023-05-21T06:19:06;101552.53;;;18.71;77.09
57668;BME280;43499;52.366;12.912;2023-05-21T06:20:07;101557.91;;;18.86;76.46
57668;BME280;43499;52.366;12.912;2023-05-21T06:21:09;101555.00;;;18.96;76.24
57668;BME280;43499;52.366;12.912;2023-05-21T06:22:10;101552.16;;;18.93;76.00
57668;BME280;43499;52.366;12.912;2023-05-21T06:23:12;101543.81;;;19.02;74.87
57668;BME280;43499;52.366;12.912;2023-05-21T06:24:13;101548.19;;;19.02;75.37
57668;BME280;43499;52.366;12.912;2023-05-21T06:25:15;101552.91;;;19.06;74.66
57668;BME280;43499;52.366;12.912;2023-05-21T06:26:16;101542.00;;;18.88;75.41
57668;BME280;43499;52.366;12.912;2023-05-21T06:27:20;101536.88;;;19.21;75.18
57668;BME280;43499;52.366;12.912;2023-05-21T06:28:22;101543.78;;;19.32;73.92
57668;BME280;43499;52.366;12.912;2023-05-21T06:29:23;101539.22;;;19.46;73.37
57668;BME280;43499;52.366;12.912;2023-05-21T06:30:24;101548.78;;;19.57;72.83
57668;BME280;43499;52.366;12.912;2023-05-21T06:31:26;101544.84;;;19.82;72.22
57668;BME280;43499;52.366;12.912;2023-05-21T06:32:28;101552.75;;;19.96;71.67
57668;BME280;43499;52.366;12.912;2023-05-21T06:33:29;101550.63;;;20.22;70.40
57668;BME280;43499;52.366;12.912;2023-05-21T06:34:30;101541.34;;;20.15;71.09
57668;BME280;43499;52.366;12.912;2023-05-21T06:35:31;101538.03;;;20.52;69.04
57668;BME280;43499;52.366;12.912;2023-05-21T06:36:34;101542.31;;;20.66;68.21
57668;BME280;43499;52.366;12.912;2023-05-21T06:37:36;101544.50;;;20.74;67.73
57668;BME280;43499;52.366;12.912;2023-05-21T06:38:37;101536.59;;;20.59;67.53
57668;BME280;43499;52.366;12.912;2023-05-21T06:39:38;101548.25;;;20.61;68.09
57668;BME280;43499;52.366;12.912;2023-05-21T06:40:39;101546.25;;;20.90;67.90
57668;BME280;43499;52.366;12.912;2023-05-21T06:41:42;101536.63;;;20.93;67.25
57668;BME280;43499;52.366;12.912;2023-05-21T06:43:17;101539.53;;;20.98;67.47
57668;BME280;43499;52.366;12.912;2023-05-21T06:44:50;101529.72;;;21.33;65.58
57668;BME280;43499;52.366;12.912;2023-05-21T06:45:59;101528.94;;;21.54;65.46
57668;BME280;43499;52.366;12.912;2023-05-21T06:47:10;101541.44;;;21.71;64.88
57668;BME280;43499;52.366;12.912;2023-05-21T06:48:11;101533.84;;;21.81;64.89
57668;BME280;43499;52.366;12.912;2023-05-21T06:49:13;101539.00;;;21.76;64.30
57668;BME280;43499;52.366;12.912;2023-05-21T06:50:14;101530.75;;;21.71;63.57
57668;BME280;43499;52.366;12.912;2023-05-21T06:51:16;101524.53;;;21.54;63.18
57668;BME280;43499;52.366;12.912;2023-05-21T06:52:17;101523.59;;;21.54;63.72
57668;BME280;43499;52.366;12.912;2023-05-21T06:53:18;101527.75;;;21.65;63.23
57668;BME280;43499;52.366;12.912;2023-05-21T06:54:19;101531.50;;;21.51;63.59
57668;BME280;43499;52.366;12.912;2023-05-21T06:55:21;101527.22;;;21.72;64.54
57668;BME280;43499;52.366;12.912;2023-05-21T06:56:38;101512.06;;;21.73;63.20
57668;BME280;43499;52.366;12.912;2023-05-21T06:57:39;101527.41;;;21.95;63.21
57668;BME280;43499;52.366;12.912;2023-05-21T06:58:40;101526.72;;;22.19;62.40
57668;BME280;43499;52.366;12.912;2023-05-21T06:59:41;101527.75;;;22.41;61.76
57668;BME280;43499;52.366;12.912;2023-05-21T07:00:42;101531.53;;;22.65;61.58
57668;BME280;43499;52.366;12.912;2023-05-21T07:01:43;101519.75;;;22.82;60.88
57668;BME280;43499;52.366;12.912;2023-05-21T07:02:45;101531.75;;;22.50;59.98
57668;BME280;43499;52.366;12.912;2023-05-21T07:03:46;101531.94;;;22.16;61.63
57668;BME280;43499;52.366;12.912;2023-05-21T07:04:47;101519.03;;;22.27;61.67
57668;BME280;43499;52.366;12.912;2023-05-21T07:05:48;101519.78;;;22.42;62.20
57668;BME280;43499;52.366;12.912;2023-05-21T07:06:49;101524.41;;;22.66;61.17
57668;BME280;43499;52.366;12.912;2023-05-21T07:07:52;101517.75;;;22.77;59.78
57668;BME280;43499;52.366;12.912;2023-05-21T07:08:53;101536.22;;;22.91;59.86
57668;BME280;43499;52.366;12.912;2023-05-21T07:09:54;101517.34;;;22.89;59.60
57668;BME280;43499;52.366;12.912;2023-05-21T07:10:55;101520.69;;;22.62;59.50
57668;BME280;43499;52.366;12.912;2023-05-21T07:11:56;101526.59;;;22.75;59.75
57668;BME280;43499;52.366;12.912;2023-05-21T07:12:57;101532.69;;;22.92;59.05
57668;BME280;43499;52.366;12.912;2023-05-21T07:13:58;101528.09;;;22.89;59.21
57668;BME280;43499;52.366;12.912;2023-05-21T07:15:05;101514.75;;;22.91;58.62
57668;BME280;43499;52.366;12.912;2023-05-21T07:16:06;101511.44;;;22.96;58.58
57668;BME280;43499;52.366;12.912;2023-05-21T07:17:07;101521.19;;;23.16;57.98
57668;BME280;43499;52.366;12.912;2023-05-21T07:18:09;101510.44;;;22.94;58.39